Time;durP1;ratioP1;P1;durP2;ratioP2;P2;SDS_P1;SDS_P2;PMS_P1;PMS_P2;Temp;Humidity;BMP_temperature;BMP_pressure;BME280_temperature;BME280_humidity;BME280_pressure;Samples;Min_cycle;Max_cycle;Signal;HPM_P1;HPM_P2
2021/12/15 00:02:21;;;;;;;390.65;39.63;;;;;;;1.84;100.00;99803.13;4369273;32;20087;-74
2021/12/15 00:04:51;;;;;;;250.75;35.53;;;;;;;1.54;100.00;99755.16;4371435;32;20044;-74
2021/12/15 00:07:22;;;;;;;278.52;34.08;;;;;;;1.63;100.00;99770.03;4370664;32;20031;-74
2021/12/15 00:09:49;;;;;;;441.80;44.25;;;;;;;1.84;100.00;99808.44;4371577;32;20106;-74
2021/12/15 00:12:16;;;;;;;309.15;36.75;;;;;;;1.78;100.00;99800.16;4367385;32;20061;-74
2021/12/15 00:14:43;;;;;;;442.58;44.67;;;;;;;1.89;100.00;99822.03;4371187;32;20096;-74
2021/12/15 00:17:11;;;;;;;270.98;36.35;;;;;;;1.93;100.00;99807.38;4366011;32;20095;-74
2021/12/15 00:19:40;;;;;;;314.85;38.63;;;;;;;1.94;100.00;99809.03;4357535;32;20199;-74
2021/12/15 00:22:06;;;;;;;499.35;44.15;;;;;;;1.91;100.00;99806.72;4355225;32;20074;-75
2021/12/15 00:24:34;;;;;;;420.95;40.92;;;;;;;1.83;100.00;99780.22;4354791;32;20036;-74
2021/12/15 00:27:00;;;;;;;321.23;39.03;;;;;;;1.93;100.00;99797.59;4357646;32;20216;-74
2021/12/15 00:29:27;;;;;;;298.58;37.70;;;;;;;1.97;100.00;99804.19;4357543;32;20049;-73
2021/12/15 00:31:55;;;;;;;354.80;41.03;;;;;;;1.72;100.00;99768.16;4370080;32;20066;-74
2021/12/15 00:34:21;;;;;;;336.50;38.80;;;;;;;1.85;100.00;99773.75;4370574;32;20043;-75
2021/12/15 00:36:48;;;;;;;194.23;31.92;;;;;;;1.95;100.00;99797.41;4355407;32;20039;-74
2021/12/15 00:39:21;;;;;;;351.02;37.55;;;;;;;1.97;100.00;99814.00;4357813;32;20051;-74
2021/12/15 00:41:48;;;;;;;317.73;37.88;;;;;;;2.00;100.00;99803.03;4370187;32;20052;-72
2021/12/15 00:44:15;;;;;;;395.60;40.67;;;;;;;1.78;100.00;99762.97;4369942;32;20089;-75
2021/12/15 00:46:44;;;;;;;527.53;46.33;;;;;;;2.00;100.00;99789.75;4368950;32;20076;-74
2021/12/15 00:49:11;;;;;;;297.40;35.60;;;;;;;2.08;100.00;99805.63;4356413;32;20151;-74
2021/12/15 00:51:39;;;;;;;422.25;38.03;;;;;;;2.09;100.00;99809.97;4369994;32;20069;-74
2021/12/15 00:54:07;;;;;;;246.45;34.97;;;;;;;2.15;100.00;99806.59;4368977;32;20048;-74
2021/12/15 00:56:34;;;;;;;291.35;35.38;;;;;;;2.02;100.00;99816.13;4355283;32;20027;-74
2021/12/15 00:59:06;;;;;;;284.73;37.80;;;;;;;2.03;100.00;99802.69;4356502;32;20065;-74
2021/12/15 01:01:35;;;;;;;308.38;40.03;;;;;;;1.79;100.00;99764.63;4370227;32;20065;-74
2021/12/15 01:04:05;;;;;;;302.20;41.95;;;;;;;2.04;100.00;99809.63;4370600;32;20039;-73
2021/12/15 01:06:33;;;;;;;340.37;37.65;;;;;;;1.99;100.00;99794.25;4354039;32;20072;-73
2021/12/15 01:09:06;;;;;;;396.15;41.40;;;;;;;1.97;100.00;99776.81;4369334;32;20099;-73
2021/12/15 01:14:36;;;;;;;516.00;44.58;;;;;;;1.91;100.00;99773.03;4368787;32;20446;-74
2021/12/15 01:19:55;;;;;;;469.55;43.72;;;;;;;2.12;100.00;99828.22;4368817;32;20384;-73
2021/12/15 01:22:30;;;;;;;427.73;39.85;;;;;;;2.19;100.00;99820.34;4370118;32;21251;-73
2021/12/15 01:25:05;;;;;;;365.27;38.58;;;;;;;1.97;100.00;99779.47;4356997;32;20091;-73
2021/12/15 01:27:32;;;;;;;310.33;36.88;;;;;;;2.22;100.00;99832.44;4370482;32;20425;-74
2021/12/15 01:29:59;;;;;;;313.48;36.50;;;;;;;2.26;100.00;99836.41;4368922;32;20048;-73
2021/12/15 01:32:26;;;;;;;173.65;28.38;;;;;;;2.23;100.00;99823.47;4369663;32;20380;-72
2021/12/15 01:34:53;;;;;;;410.27;36.70;;;;;;;2.26;100.00;99833.75;4370249;32;20061;-73
2021/12/15 01:37:20;;;;;;;556.83;48.38;;;;;;;2.32;100.00;99831.22;4356024;32;20061;-72
2021/12/15 01:39:52;;;;;;;390.20;42.30;;;;;;;1.98;100.00;99767.84;4369814;32;20158;-74
2021/12/15 01:42:20;;;;;;;345.15;40.45;;;;;;;2.45;100.00;99838.59;4356611;32;20047;-73
2021/12/15 01:47:32;;;;;;;338.70;37.20;;;;;;;2.39;100.00;99844.62;4369444;32;20109;-74
2021/12/15 01:49:58;;;;;;;408.70;40.00;;;;;;;2.11;100.00;99799.97;4369502;32;20364;-72
2021/12/15 01:52:30;;;;;;;196.07;30.35;;;;;;;2.13;100.00;99797.13;4369535;32;20057;-73
2021/12/15 01:55:08;;;;;;;267.90;35.03;;;;;;;2.33;100.00;99834.69;4370272;32;20434;-72
2021/12/15 01:57:36;;;;;;;370.92;36.25;;;;;;;2.20;100.00;99802.56;4364637;32;20077;-73
2021/12/15 02:00:17;;;;;;;360.15;39.13;;;;;;;2.38;100.00;99832.34;4363126;32;20061;-73
2021/12/15 02:02:44;;;;;;;371.67;37.40;;;;;;;2.43;100.00;99839.81;4369757;32;20416;-73
2021/12/15 02:05:12;;;;;;;383.73;41.80;;;;;;;2.21;100.00;99790.94;4355649;32;20064;-74
2021/12/15 02:07:42;;;;;;;325.83;34.53;;;;;;;2.57;100.00;99846.16;4355664;32;20039;-73
2021/12/15 02:10:10;;;;;;;446.50;42.92;;;;;;;2.47;100.00;99847.25;4356591;32;20043;-73
2021/12/15 02:12:40;;;;;;;190.73;32.50;;;;;;;2.46;100.00;99848.25;4371781;32;20032;-74
2021/12/15 02:15:18;;;;;;;324.90;37.58;;;;;;;2.61;100.00;99847.47;4372982;32;20031;-73
2021/12/15 02:17:46;;;;;;;328.75;36.90;;;;;;;2.46;100.00;99844.78;4372824;32;20055;-73
2021/12/15 02:20:19;;;;;;;316.55;38.20;;;;;;;2.30;100.00;99809.31;4371638;32;20039;-73
2021/12/15 02:22:46;;;;;;;357.35;38.70;;;;;;;2.56;100.00;99844.53;4369895;32;20468;-73
2021/12/15 02:25:16;;;;;;;370.10;39.70;;;;;;;2.55;100.00;99846.34;4370878;32;20454;-74
2021/12/15 02:27:43;;;;;;;400.02;41.67;;;;;;;2.39;100.00;99818.03;4372740;32;20052;-74
2021/12/15 02:31:07;;;;;;;463.10;42.47;;;;;;;2.69;100.00;99855.38;4372902;32;20073;-74
2021/12/15 02:38:48;;;;;;;307.80;37.47;;;;;;;2.75;100.00;99854.69;4319372;32;20052;-73
2021/12/15 02:41:20;;;;;;;351.23;36.70;;;;;;;2.72;100.00;99860.34;4372382;32;20035;-73
2021/12/15 02:43:57;;;;;;;204.77;30.58;;;;;;;2.79;100.00;99861.28;4372617;32;20078;-73
2021/12/15 02:46:25;;;;;;;250.87;31.40;;;;;;;2.83;100.00;99857.28;4370654;32;20078;-74
2021/12/15 02:48:52;;;;;;;251.60;33.13;;;;;;;2.69;100.00;99861.53;4367699;32;20083;-73
2021/12/15 02:51:20;;;;;;;310.17;37.88;;;;;;;2.58;100.00;99853.16;4371711;32;20036;-74
2021/12/15 02:53:48;;;;;;;185.18;32.85;;;;;;;2.38;100.00;99811.09;4372581;32;20044;-74
2021/12/15 02:56:15;;;;;;;293.42;32.90;;;;;;;2.66;100.00;99859.22;4369959;32;20066;-74
2021/12/15 02:58:51;;;;;;;310.50;32.80;;;;;;;2.63;100.00;99862.25;4372179;32;20055;-74
2021/12/15 03:01:27;;;;;;;239.45;34.08;;;;;;;2.30;100.00;99813.81;4357530;32;20044;-74
2021/12/15 03:04:13;;;;;;;245.65;34.58;;;;;;;2.67;100.00;99873.38;4372381;32;20360;-74
2021/12/15 03:06:52;;;;;;;153.90;28.52;;;;;;;2.67;100.00;99868.03;4370286;32;20057;-74
2021/12/15 03:17:09;;;;;;;199.65;26.65;;;;;;;2.55;100.00;99875.59;4371798;32;20051;-74
2021/12/15 03:19:35;;;;;;;220.32;31.25;;;;;;;2.54;100.00;99873.94;4370418;32;20057;-74
2021/12/15 03:22:02;;;;;;;200.90;31.98;;;;;;;2.41;100.00;99841.78;4357646;32;20065;-74
2021/12/15 03:24:29;;;;;;;139.18;28.52;;;;;;;2.55;100.00;99880.91;4371870;32;20040;-73
2021/12/15 03:27:14;;;;;;;183.82;32.58;;;;;;;2.54;100.00;99884.59;4372202;32;20036;-74
2021/12/15 03:37:49;;;;;;;187.55;31.37;;;;;;;2.59;100.00;99886.72;4361860;32;20062;-72
2021/12/15 03:40:27;;;;;;;215.62;31.27;;;;;;;2.29;100.00;99833.41;4359811;32;20047;-73
2021/12/15 03:43:02;;;;;;;142.68;27.95;;;;;;;2.63;100.00;99878.22;4369530;32;20036;-73
2021/12/15 03:45:38;;;;;;;179.38;28.50;;;;;;;2.69;100.00;99877.47;4357981;32;20049;-72
2021/12/15 03:48:09;;;;;;;174.00;28.08;;;;;;;2.68;100.00;99877.66;4357998;32;20028;-73
2021/12/15 03:50:36;;;;;;;119.97;27.05;;;;;;;2.53;100.00;99861.66;4368943;32;20367;-73
2021/12/15 03:53:04;;;;;;;192.90;30.08;;;;;;;2.60;100.00;99867.94;4371301;32;20076;-73
2021/12/15 03:55:34;;;;;;;110.18;27.27;;;;;;;2.47;100.00;99863.19;4371517;32;20210;-73
2021/12/15 03:58:06;;;;;;;90.57;25.27;;;;;;;2.42;100.00;99854.91;4371262;32;20467;-73
2021/12/15 04:00:33;;;;;;;119.87;26.83;;;;;;;2.58;100.00;99874.41;4368312;32;20075;-74
2021/12/15 04:03:00;;;;;;;110.60;25.80;;;;;;;2.49;100.00;99863.84;4369835;32;20159;-73
2021/12/15 04:05:27;;;;;;;115.47;29.73;;;;;;;2.65;100.00;99875.34;4370685;32;20751;-73
2021/12/15 04:07:55;;;;;;;138.45;29.40;;;;;;;2.58;100.00;99859.28;4371215;32;20384;-73
2021/12/15 04:10:25;;;;;;;144.90;28.08;;;;;;;2.45;100.00;99843.09;4357888;32;20074;-72
2021/12/15 04:12:52;;;;;;;131.32;27.62;;;;;;;2.60;100.00;99891.00;4355987;32;20039;-73
2021/12/15 04:17:57;;;;;;;149.48;25.12;;;;;;;2.73;100.00;99888.63;4371182;32;20166;-73
2021/12/15 04:20:27;;;;;;;143.27;26.02;;;;;;;2.62;100.00;99865.09;4356734;32;20388;-73
2021/12/15 04:22:55;;;;;;;125.25;26.98;;;;;;;2.74;100.00;99884.94;4369060;32;20065;-75
2021/12/15 04:25:25;;;;;;;136.82;27.00;;;;;;;2.79;100.00;99882.56;4370743;32;20079;-73
2021/12/15 04:27:51;;;;;;;132.37;25.88;;;;;;;2.80;100.00;99886.87;4344995;32;20044;-73
2021/12/15 04:30:18;;;;;;;199.25;25.90;;;;;;;2.74;100.00;99884.94;4362243;32;20065;-73
2021/12/15 04:32:47;;;;;;;219.45;26.05;;;;;;;2.84;100.00;99890.00;4370072;32;20065;-73
2021/12/15 04:35:14;;;;;;;219.57;29.02;;;;;;;2.70;100.00;99888.97;4367840;32;20035;-74
2021/12/15 04:37:43;;;;;;;212.00;28.52;;;;;;;2.71;100.00;99895.91;4369395;32;20060;-73
2021/12/15 04:40:15;;;;;;;300.50;33.67;;;;;;;2.60;100.00;99891.00;4369250;32;20059;-73
2021/12/15 04:42:43;;;;;;;253.95;27.58;;;;;;;2.72;100.00;99902.91;4369384;32;20075;-73
2021/12/15 04:45:14;;;;;;;267.37;29.37;;;;;;;2.65;100.00;99892.16;4369402;32;20035;-74
2021/12/15 04:47:41;;;;;;;281.63;29.92;;;;;;;2.77;100.00;99889.06;4357131;32;20314;-73
2021/12/15 04:50:09;;;;;;;244.23;28.42;;;;;;;2.73;100.00;99888.63;4370503;32;20384;-73
2021/12/15 04:52:37;;;;;;;392.55;34.28;;;;;;;2.79;100.00;99892.38;4369623;32;20086;-73
2021/12/15 04:55:07;;;;;;;387.02;31.55;;;;;;;2.83;100.00;99899.81;4370893;32;20043;-74
2021/12/15 04:57:34;;;;;;;327.98;33.33;;;;;;;2.41;100.00;99852.44;4369259;32;20057;-73
2021/12/15 05:00:01;;;;;;;317.08;29.70;;;;;;;2.38;100.00;99858.94;4356844;32;20159;-74
2021/12/15 05:02:27;;;;;;;260.95;29.85;;;;;;;2.66;100.00;99903.59;4370321;32;20036;-73
2021/12/15 05:04:54;;;;;;;327.17;30.27;;;;;;;2.67;100.00;99905.28;4369447;32;20064;-73
2021/12/15 05:07:21;;;;;;;369.58;30.35;;;;;;;2.40;100.00;99862.25;4366872;32;20467;-74
2021/12/15 05:09:50;;;;;;;237.55;28.50;;;;;;;2.60;100.00;99893.69;4369938;32;20084;-73
2021/12/15 05:12:19;;;;;;;324.77;28.80;;;;;;;2.59;100.00;99903.50;4370512;32;20062;-74
2021/12/15 05:14:46;;;;;;;294.50;28.02;;;;;;;2.60;100.00;99906.97;4370660;32;20358;-73
2021/12/15 05:17:12;;;;;;;288.35;29.83;;;;;;;2.62;100.00;99908.47;4351298;32;20067;-73
2021/12/15 05:19:39;;;;;;;358.42;32.08;;;;;;;2.67;100.00;99911.41;4368757;32;20065;-73
2021/12/15 05:22:06;;;;;;;321.00;31.73;;;;;;;2.34;100.00;99860.28;4370052;32;20239;-72
2021/12/15 05:24:33;;;;;;;260.88;26.27;;;;;;;2.46;100.00;99880.16;4368408;32;20035;-73
2021/12/15 05:27:05;;;;;;;269.17;26.33;;;;;;;2.70;100.00;99920.88;4355266;32;20442;-73
2021/12/15 05:29:32;;;;;;;254.50;28.02;;;;;;;2.67;100.00;99906.09;4342138;33;20098;-73
2021/12/15 05:31:59;;;;;;;246.40;26.27;;;;;;;2.63;100.00;99909.28;4339874;33;20027;-74
2021/12/15 05:34:26;;;;;;;191.77;25.90;;;;;;;2.58;100.00;99901.00;4360405;32;20889;-73
2021/12/15 05:36:53;;;;;;;233.32;29.10;;;;;;;2.71;100.00;99917.19;4369718;32;20067;-74
2021/12/15 05:39:21;;;;;;;280.65;26.33;;;;;;;2.53;100.00;99883.75;4369048;32;20417;-73
2021/12/15 05:41:49;;;;;;;160.02;26.02;;;;;;;2.69;100.00;99919.22;4353649;32;20032;-73
2021/12/15 05:44:16;;;;;;;168.95;25.73;;;;;;;2.76;100.00;99930.81;4370308;32;20051;-73
2021/12/15 05:46:43;;;;;;;251.85;27.42;;;;;;;2.69;100.00;99932.50;4372205;32;20040;-74
2021/12/15 05:49:10;;;;;;;249.85;27.65;;;;;;;2.75;100.00;99929.16;4373226;32;20048;-73
2021/12/15 05:51:37;;;;;;;229.60;26.67;;;;;;;2.60;100.00;99904.31;4353872;32;20197;-73
2021/12/15 05:54:06;;;;;;;216.52;30.05;;;;;;;2.52;100.00;99892.75;4368532;32;20069;-74
2021/12/15 05:56:33;;;;;;;221.00;27.87;;;;;;;2.75;100.00;99933.66;4371441;32;20055;-73
2021/12/15 05:58:59;;;;;;;251.05;28.67;;;;;;;2.49;100.00;99887.78;4358770;32;20057;-73
2021/12/15 06:01:28;;;;;;;251.85;26.98;;;;;;;2.79;100.00;99919.78;4366153;32;20365;-73
2021/12/15 06:03:55;;;;;;;189.35;25.67;;;;;;;2.77;100.00;99913.84;4373131;32;20043;-73
2021/12/15 06:06:22;;;;;;;149.15;25.17;;;;;;;2.50;100.00;99878.78;4367033;32;20032;-74
2021/12/15 06:08:49;;;;;;;243.30;26.33;;;;;;;2.53;100.00;99880.25;4372620;32;20117;-73
2021/12/15 06:11:16;;;;;;;202.00;25.83;;;;;;;2.63;100.00;99914.59;4367899;32;20059;-73
2021/12/15 06:13:50;;;;;;;183.07;24.37;;;;;;;2.30;100.00;99881.06;4367824;32;20097;-73
2021/12/15 06:16:18;;;;;;;235.13;25.77;;;;;;;2.55;100.00;99931.41;4356632;32;20043;-74
2021/12/15 06:18:48;;;;;;;177.23;25.85;;;;;;;2.40;100.00;99899.44;4357335;32;20059;-74
2021/12/15 06:21:16;;;;;;;206.40;29.15;;;;;;;2.49;100.00;99922.34;4362346;32;20036;-74
2021/12/15 06:23:43;;;;;;;276.33;26.00;;;;;;;2.53;100.00;99931.59;4372512;32;20097;-74
2021/12/15 06:26:10;;;;;;;207.98;23.55;;;;;;;2.57;100.00;99936.56;4370114;32;20040;-74
2021/12/15 06:28:38;;;;;;;330.83;27.62;;;;;;;2.58;100.00;99938.22;4370648;32;20032;-74
2021/12/15 06:31:08;;;;;;;298.67;24.50;;;;;;;2.59;100.00;99934.56;4358505;32;20039;-76
2021/12/15 06:33:38;;;;;;;152.77;18.98;;;;;;;2.38;100.00;99890.84;4372743;32;20040;-73
2021/12/15 06:36:07;;;;;;;249.50;24.95;;;;;;;2.62;100.00;99945.69;4365829;32;20448;-74
2021/12/15 06:38:40;;;;;;;227.23;24.00;;;;;;;2.40;100.00;99910.09;4371280;32;20088;-75
2021/12/15 06:41:09;;;;;;;253.95;23.12;;;;;;;2.47;100.00;99921.69;4372167;32;20048;-74
2021/12/15 06:43:37;;;;;;;289.60;24.73;;;;;;;2.30;100.00;99910.31;4371193;32;20024;-74
2021/12/15 06:57:34;;;;;;;280.30;26.08;;;;;;;2.30;100.00;99941.38;4366540;32;20150;-75
2021/12/15 07:00:14;;;;;;;305.25;25.52;;;;;;;2.61;100.00;99981.25;4369888;32;20083;-74
2021/12/15 07:02:41;;;;;;;224.18;23.75;;;;;;;2.66;100.00;99992.19;4370473;32;20057;-74
2021/12/15 07:05:13;;;;;;;240.77;24.27;;;;;;;2.75;100.00;100006.28;4370194;32;20051;-75
2021/12/15 07:07:42;;;;;;;266.30;25.02;;;;;;;2.68;100.00;99987.53;4370861;32;20713;-74
2021/12/15 07:10:11;;;;;;;238.37;23.15;;;;;;;2.75;100.00;99992.97;4371367;32;20093;-75
2021/12/15 07:12:38;;;;;;;154.23;25.08;;;;;;;2.89;100.00;100010.03;4371925;32;20430;-75
2021/12/15 07:15:07;;;;;;;323.60;24.10;;;;;;;2.77;100.00;100001.59;4369380;32;20350;-73
2021/12/15 07:17:36;;;;;;;116.65;22.02;;;;;;;2.79;100.00;100010.22;4370387;32;20072;-71
2021/12/15 07:23:00;;;;;;;184.40;25.45;;;;;;;2.94;100.00;100018.31;4370994;32;20047;-73
2021/12/15 07:25:28;;;;;;;239.27;23.75;;;;;;;2.95;100.00;100013.81;4372056;32;20044;-73
2021/12/15 07:27:56;;;;;;;426.65;32.88;;;;;;;2.74;100.00;99983.34;4371083;32;20039;-73
2021/12/15 07:30:23;;;;;;;150.60;25.12;;;;;;;3.02;100.00;100020.91;4371861;32;20081;-72
2021/12/15 07:32:50;;;;;;;184.73;23.95;;;;;;;3.01;100.00;100013.09;4355843;32;20058;-74
2021/12/15 07:35:19;;;;;;;183.75;25.08;;;;;;;3.00;100.00;100022.09;4357460;32;20085;-73
2021/12/15 07:37:46;;;;;;;186.32;25.60;;;;;;;2.98;100.00;100029.41;4371715;32;20073;-73
2021/12/15 07:40:20;;;;;;;246.60;30.02;;;;;;;2.80;100.00;99974.66;4357678;32;20067;-73
2021/12/15 07:43:03;;;;;;;200.10;26.00;;;;;;;2.91;100.00;100014.16;4354699;32;20051;-73
2021/12/15 07:45:30;;;;;;;194.98;27.05;;;;;;;2.79;100.00;100015.53;4370802;32;20039;-73
2021/12/15 07:47:59;;;;;;;182.62;33.38;;;;;;;2.87;100.00;100012.88;4370683;32;20103;-73
2021/12/15 07:50:27;;;;;;;280.75;35.42;;;;;;;2.56;100.00;99972.16;4368296;32;20032;-73
2021/12/15 07:52:54;;;;;;;284.20;36.40;;;;;;;2.67;100.00;99975.22;4366284;32;20078;-73
2021/12/15 07:55:22;;;;;;;272.15;32.25;;;;;;;2.85;100.00;100020.16;4369586;32;20177;-72
2021/12/15 07:57:50;;;;;;;299.98;28.38;;;;;;;2.91;100.00;100032.78;4359554;32;20060;-71
2021/12/15 08:00:18;;;;;;;384.30;28.90;;;;;;;2.64;100.00;99996.03;4368491;32;20058;-73
2021/12/15 08:02:46;;;;;;;218.73;24.50;;;;;;;2.67;100.00;100001.00;4363566;32;20100;-74
2021/12/15 08:05:13;;;;;;;301.33;28.17;;;;;;;2.80;100.00;100021.72;4363517;32;20087;-74
2021/12/15 08:07:39;;;;;;;274.10;24.77;;;;;;;2.64;100.00;100001.34;4361618;32;20028;-72
2021/12/15 08:10:10;;;;;;;373.27;31.60;;;;;;;2.87;100.00;100044.78;4356179;32;20069;-73
2021/12/15 08:12:38;;;;;;;174.75;25.37;;;;;;;2.54;100.00;99993.59;4357173;32;20032;-73
2021/12/15 08:15:07;;;;;;;253.68;27.13;;;;;;;2.87;100.00;100035.97;4368881;32;20040;-72
2021/12/15 08:17:38;;;;;;;223.73;27.20;;;;;;;2.94;100.00;100044.09;4357426;32;20417;-74
2021/12/15 08:20:12;;;;;;;211.50;24.83;;;;;;;2.77;100.00;100044.16;4364013;32;20455;-74
2021/12/15 08:22:40;;;;;;;125.95;21.33;;;;;;;2.54;100.00;99986.44;4368715;32;20393;-74
2021/12/15 08:25:09;;;;;;;150.45;23.83;;;;;;;2.91;100.00;100051.41;4370605;32;20376;-76
2021/12/15 08:27:36;;;;;;;205.57;25.15;;;;;;;2.86;100.00;100042.31;4355622;32;20388;-78
2021/12/15 08:30:07;;;;;;;135.32;23.05;;;;;;;2.85;100.00;100054.75;4351850;32;20104;-75
2021/12/15 08:32:34;;;;;;;145.70;20.80;;;;;;;2.74;100.00;100055.16;4344970;32;20039;-75
2021/12/15 08:35:02;;;;;;;132.75;24.20;;;;;;;2.75;100.00;100054.16;4360681;32;20081;-75
2021/12/15 08:37:34;;;;;;;174.57;20.85;;;;;;;2.27;100.00;99952.34;4356681;32;20089;-75
2021/12/15 08:40:10;;;;;;;140.25;26.08;;;;;;;2.73;100.00;100053.50;4358239;32;20036;-75
2021/12/15 08:45:54;;;;;;;185.55;23.23;;;;;;;2.97;100.00;100049.03;4128227;31;20111;-74
2021/12/15 08:48:21;;;;;;;85.62;23.70;;;;;;;2.86;100.00;100032.47;4324280;33;20082;-74
2021/12/15 08:50:48;;;;;;;121.65;22.80;;;;;;;2.64;100.00;100017.31;4316299;33;20084;-74
2021/12/15 08:53:16;;;;;;;177.93;22.58;;;;;;;2.96;100.00;100058.84;4311616;33;20468;-74
2021/12/15 08:55:46;;;;;;;104.90;19.42;;;;;;;2.95;100.00;100061.69;4310772;33;20126;-74
2021/12/15 08:58:15;;;;;;;123.95;24.60;;;;;;;2.69;100.00;100017.59;4309142;33;20076;-74
2021/12/15 09:00:43;;;;;;;69.47;23.25;;;;;;;2.98;100.00;100048.03;4311017;33;20058;-73
2021/12/15 09:03:12;;;;;;;115.72;21.80;;;;;;;3.03;100.00;100058.97;4312789;33;20063;-76
2021/12/15 09:05:39;;;;;;;61.90;18.42;;;;;;;2.81;100.00;100029.53;4310558;33;20415;-74
2021/12/15 09:08:06;;;;;;;113.05;20.08;;;;;;;3.05;100.00;100057.81;4311379;33;20036;-74
2021/12/15 09:10:35;;;;;;;86.93;20.33;;;;;;;3.03;100.00;100053.66;4324438;33;20056;-74
2021/12/15 09:13:03;;;;;;;87.25;17.90;;;;;;;3.01;100.00;100050.34;4325969;33;20365;-74
2021/12/15 09:15:30;;;;;;;110.82;22.25;;;;;;;3.00;100.00;100052.19;4324747;33;20054;-75
2021/12/15 09:17:59;;;;;;;183.43;24.45;;;;;;;3.09;100.00;100053.81;4324432;33;20066;-75
2021/12/15 09:20:30;;;;;;;107.20;21.08;;;;;;;3.06;100.00;100038.19;4323888;33;20449;-75
2021/12/15 09:23:01;;;;;;;95.70;20.52;;;;;;;2.84;100.00;100007.91;4326530;33;20070;-74
2021/12/15 09:25:30;;;;;;;154.60;22.65;;;;;;;3.09;100.00;100047.63;4312542;33;20063;-74
2021/12/15 09:27:58;;;;;;;128.32;21.25;;;;;;;3.04;100.00;100023.41;4324453;33;20077;-76
2021/12/15 09:30:28;;;;;;;95.68;20.62;;;;;;;2.77;100.00;99996.28;4310642;33;20040;-74
2021/12/15 09:32:55;;;;;;;92.80;21.80;;;;;;;2.85;100.00;100009.53;4312189;33;20036;-76
2021/12/15 09:35:24;;;;;;;118.57;18.40;;;;;;;3.11;100.00;100050.13;4325441;33;20037;-75
2021/12/15 09:37:52;;;;;;;108.65;20.62;;;;;;;3.11;100.00;100034.16;4326236;33;20094;-76
2021/12/15 09:40:22;;;;;;;84.37;19.77;;;;;;;3.14;100.00;100045.28;4323244;33;20052;-76
2021/12/15 09:42:52;;;;;;;113.15;21.35;;;;;;;3.11;100.00;100040.31;4326071;33;20070;-77
2021/12/15 10:02:12;;;;;;;175.40;20.73;;;;;;;2.90;100.00;99975.28;4312036;33;20083;-77
2021/12/15 10:19:28;;;;;;;238.87;22.30;;;;;;;3.22;100.00;100004.47;4237078;33;20072;-77
2021/12/15 10:22:06;;;;;;;206.18;22.48;;;;;;;2.97;100.00;99969.22;4250303;33;20063;-77
2021/12/15 10:24:46;;;;;;;204.32;21.90;;;;;;;3.25;100.00;100010.25;4249891;33;20051;-75
2021/12/15 10:27:17;;;;;;;295.02;23.50;;;;;;;3.28;100.00;100009.91;4251239;33;20147;-77
2021/12/15 10:30:01;;;;;;;140.45;19.87;;;;;;;3.18;100.00;99997.88;4250153;33;20037;-76
2021/12/15 10:32:41;;;;;;;242.77;25.55;;;;;;;3.22;100.00;99999.16;4251639;33;20107;-76
2021/12/15 10:35:23;;;;;;;118.68;16.98;;;;;;;3.21;100.00;99998.34;4389141;28;20095;-76
2021/12/15 10:38:08;;;;;;;239.70;22.55;;;;;;;3.19;100.00;100003.00;4268138;33;20438;-76
2021/12/15 10:40:47;;;;;;;243.70;20.88;;;;;;;3.11;100.00;99960.47;4255987;33;20162;-77
2021/12/15 10:43:15;;;;;;;151.07;21.20;;;;;;;3.34;100.00;100002.25;4270871;33;20050;-76
2021/12/15 10:45:54;;;;;;;218.80;20.35;;;;;;;3.37;100.00;100001.88;4297408;33;20064;-78
2021/12/15 10:48:36;;;;;;;165.23;22.17;;;;;;;3.40;100.00;99998.88;4297442;33;20087;-75
2021/12/15 10:51:25;;;;;;;181.50;20.92;;;;;;;3.38;100.00;99982.22;4297792;33;20071;-74
2021/12/15 10:53:59;;;;;;;148.15;21.15;;;;;;;3.38;100.00;99977.75;4299067;33;20079;-75
2021/12/15 10:56:37;;;;;;;198.80;22.75;;;;;;;3.34;100.00;99980.94;4297643;33;20071;-75
2021/12/15 10:59:11;;;;;;;223.20;21.17;;;;;;;3.48;100.00;99990.81;4297809;33;20036;-75
2021/12/15 11:01:59;;;;;;;130.12;19.98;;;;;;;3.22;100.00;99957.41;4302975;33;20151;-76
2021/12/15 11:04:55;;;;;;;155.25;21.58;;;;;;;3.51;100.00;99979.78;4303526;33;20066;-76
2021/12/15 11:07:31;;;;;;;78.75;21.50;;;;;;;3.52;100.00;99989.41;4299100;33;20038;-75
2021/12/15 11:10:05;;;;;;;91.22;18.87;;;;;;;3.48;100.00;99982.81;4271050;33;20037;-75
2021/12/15 11:12:41;;;;;;;72.65;18.17;;;;;;;3.53;100.00;99979.63;4282599;33;20336;-75
2021/12/15 11:15:22;;;;;;;63.15;18.55;;;;;;;3.53;100.00;99975.09;4271239;33;20089;-75
2021/12/15 11:17:56;;;;;;;94.45;22.08;;;;;;;3.55;100.00;99959.75;4284558;33;20049;-74
2021/12/15 11:20:29;;;;;;;80.07;22.23;;;;;;;3.70;100.00;99985.59;4282270;33;20454;-75
2021/12/15 11:23:04;;;;;;;92.10;22.90;;;;;;;3.63;100.00;99981.00;4284440;33;20033;-76
2021/12/15 11:25:42;;;;;;;64.60;22.10;;;;;;;3.54;100.00;99958.13;4284035;33;20057;-76
2021/12/15 11:28:23;;;;;;;65.53;20.27;;;;;;;3.55;100.00;99961.59;4283905;33;20111;-75
2021/12/15 11:31:14;;;;;;;54.95;20.05;;;;;;;3.68;100.00;99972.47;4271328;33;20072;-75
2021/12/15 11:33:45;;;;;;;57.35;21.33;;;;;;;3.76;100.00;99979.53;4283567;33;20103;-75
2021/12/15 11:36:17;;;;;;;52.92;17.27;;;;;;;3.60;100.00;99981.34;4282134;33;20049;-76
2021/12/15 11:38:51;;;;;;;60.75;21.83;;;;;;;3.54;100.00;99986.56;4284559;33;20042;-76
2021/12/15 11:41:19;;;;;;;133.73;48.70;;;;;;;3.60;100.00;99981.34;4282390;33;20038;-75
2021/12/15 11:44:00;;;;;;;78.00;32.92;;;;;;;3.68;100.00;99976.97;4282992;33;20403;-74
2021/12/15 11:46:30;;;;;;;68.30;23.00;;;;;;;3.61;100.00;99961.72;4270431;33;20049;-76
2021/12/15 11:49:14;;;;;;;55.72;21.42;;;;;;;3.53;100.00;99940.47;4280599;33;20063;-75
2021/12/15 11:51:54;;;;;;;54.67;20.83;;;;;;;3.68;100.00;99971.63;4283584;33;20484;-75
2021/12/15 11:54:27;;;;;;;46.20;19.37;;;;;;;3.74;100.00;99982.38;4282556;33;20041;-74
2021/12/15 11:56:59;;;;;;;53.72;18.85;;;;;;;3.52;100.00;99952.12;4283791;33;20079;-75
2021/12/15 11:59:28;;;;;;;51.37;18.48;;;;;;;3.72;100.00;99957.78;4298148;33;20063;-75
2021/12/15 12:02:02;;;;;;;55.53;22.37;;;;;;;3.93;100.00;99986.34;4297074;33;20037;-75
2021/12/15 12:04:34;;;;;;;45.75;17.58;;;;;;;3.97;100.00;99987.66;4297976;33;20074;-75
2021/12/15 12:07:20;;;;;;;;;;;;;;;3.99;100.00;99985.63;4284811;33;20071;-75
2021/12/15 12:10:11;;;;;;;47.53;18.05;;;;;;;4.04;100.00;99992.22;4283793;33;19932;-74
2021/12/15 12:12:50;;;;;;;48.50;17.75;;;;;;;3.96;100.00;99980.66;4289547;33;20041;-76
2021/12/15 12:15:20;;;;;;;37.85;15.85;;;;;;;3.69;100.00;99952.00;4296675;33;20034;-76
2021/12/15 12:17:49;;;;;;;48.83;18.40;;;;;;;3.92;100.00;99994.53;4297427;33;20299;-76
2021/12/15 12:20:21;;;;;;;42.38;16.10;;;;;;;4.03;100.00;99990.59;4297142;33;20067;-74
2021/12/15 12:22:50;;;;;;;41.60;16.75;;;;;;;3.96;100.00;99996.66;4298353;33;20049;-75
2021/12/15 12:25:23;;;;;;;45.35;16.95;;;;;;;3.98;100.00;99999.97;4296636;33;20390;-73
2021/12/15 12:27:53;;;;;;;42.62;15.55;;;;;;;3.96;100.00;99980.66;4285202;33;20071;-74
2021/12/15 12:30:30;;;;;;;46.33;17.80;;;;;;;3.68;100.00;99937.00;4297139;33;20466;-75
2021/12/15 12:32:57;;;;;;;45.15;17.90;;;;;;;4.03;100.00;99987.94;4295841;33;20045;-75
2021/12/15 12:35:30;;;;;;;46.42;18.40;;;;;;;3.78;100.00;99951.72;4296795;33;20550;-75
2021/12/15 12:38:00;;;;;;;52.75;20.45;;;;;;;4.05;100.00;100000.03;4284959;33;20041;-75
2021/12/15 12:40:32;;;;;;;53.75;20.35;;;;;;;3.82;100.00;99958.31;4297026;33;20382;-74
2021/12/15 12:42:59;;;;;;;46.80;18.35;;;;;;;4.10;100.00;99996.84;4295913;33;20066;-76
2021/12/15 12:45:34;;;;;;;45.78;19.05;;;;;;;4.06;100.00;99990.22;4297463;33;20044;-79
2021/12/15 12:59:45;;;;;;;63.58;23.08;;;;;;;4.08;100.00;99985.53;4296405;33;20417;-77